Aérodrome :
LOGIN :

S'inscrire | Disclaimer

   EN    FR    IT 

 










Légende :    VFR   VFR Marginal   IFR   IFR Intensif   IFR Très Intensif
Visi : 
Plafond : 
>= 8 km
>= 3000ft
5 à 8 km
1000 à 3000 ft
1500m à 5 km
500 à 1000 ft
800 à 1500m
200 à 500 ft
< 800m
< 200 ft
Symboles :   Orages  Brouillard  Fortes neiges  Fortes précipitations  Vent > 20 kt
SIGMETs :   Divers  Orages  Givrage  Turbulence  Onde Orograph.  Cendres Volcan.







- Altitude de l'aérodrome : 604 ft
- Code IATA : LCJ


EPLL - Lodz

DERNIER METAR :
  • 171430Z 33005KT 300V010 9999 FEW008 SCT038CB BKN047 20/18 Q1004

METARs EXPIRÉS :
  • 171400Z 34005KT 300V020 6000 -SHRA SCT005 BKN046CB 20/19 Q1004 RESHRA
  • 171330Z 30007KT 250V330 2200 SHRA FEW001 BKN003 BKN006CB 19/18 Q1004
  • 171300Z 31004KT 260V360 9999 -SHRA BKN003 BKN006CB 19/18 Q1004 RESHRA
  • 171230Z 28011KT 6000 SHRA BKN003 BKN010CB 19/18 Q1005
  • 171200Z 29009KT 260V320 9999 -SHRA BKN005 BKN010CB 19/18 Q1005 RESHRA

TAF AMD TAF EPLL
Valide du 17 à 12h jusqu'au 18 à 12h UTC


171257Z 1712/1812 30007KT 9999 BKN015
TEMPO 1712/1721 4000 SHRA BKN003 BKN012CB
PROB40
TEMPO 1712/1720 2500 TSRA BKN006CB
BECMG 1720/1723 3000 BR BKN006
PROB40 1722/1807 0600 FG BKN002
BECMG 1808/1811 8000 BKN015
Pas de NOTAMs connus pour ce terrain.
1 SIGMET publié pour la FIR Warszawa (EPWW) :
 
Orages noyés dans la masse avec grêle
EPWW SIGMET 3 VALID 171445/171645 EPWA
EPWW WARSAW FIR EMBD TSGR FCST N OF N54 AND E OF E019 AND W OF E022 TOP FL400 MOV WSW NC=



MET'MAP, la Météo Aéronautique d'un coup d'oeil ! - Copyright ORBIFLY Décembre 2007 - Disclaimer

ORBIFLY MET'MAP TEAM :

Programmation & Développement : Alexandra Zaïnal
Conception & Développement : Baudouin d'Aumeries
Co-Programmation & Développement : Marc-Olivier Méhu
Soutien technique & logistique : Manuel Goepfert

Contact : metmap@orbifly.com




SOURCES & CREDITS :

   NOAA